| time (UTC) | temp F | wind direction | speed MPH | gust MPH | rain 1hr in | rain 24hr in | rain mn in | humidity % | barometer mb |
| 20260506222109 | 56 | 303 | 12.0 | 17.0 | 0.00 | 0.00 | 0.00 | 31 | 1016.1 |
| 20260506221607 | 55 | 351 | 7.0 | 9.0 | 0.00 | 0.00 | 0.00 | 33 | 1016.2 |
| 20260506221105 | 55 | 89 | 5.0 | 7.0 | 0.00 | 0.00 | 0.00 | 32 | 1016.0 |
| 20260506220601 | 55 | 328 | 11.0 | 14.0 | 0.00 | 0.00 | 0.00 | 32 | 1016.2 |
| 20260506220057 | 54 | 343 | 6.0 | 9.0 | 0.00 | 0.00 | 0.00 | 33 | 1016.1 |
| 20260506215553 | 55 | 319 | 13.0 | 17.0 | 0.00 | 0.00 | 0.00 | 32 | 1016.4 |
| 20260506215049 | 55 | 15 | 6.0 | 9.0 | 0.00 | 0.00 | 0.00 | 33 | 1016.2 |
| 20260506214546 | 56 | 354 | 16.0 | 19.0 | 0.00 | 0.00 | 0.00 | 32 | 1016.4 |
| 20260506214043 | 55 | 331 | 7.0 | 10.0 | 0.00 | 0.00 | 0.00 | 33 | 1016.4 |
| 20260506213541 | 54 | 302 | 13.0 | 17.0 | 0.00 | 0.00 | 0.00 | 33 | 1016.4 |
| 20260506213039 | 55 | 340 | 17.0 | 21.0 | 0.00 | 0.00 | 0.00 | 34 | 1016.6 |
| 20260506212535 | 55 | 306 | 6.0 | 7.0 | 0.00 | 0.00 | 0.00 | 34 | 1016.6 |
| 20260506212030 | 55 | 322 | 9.0 | 10.0 | 0.00 | 0.00 | 0.00 | 34 | 1016.6 |
| 20260506211526 | 55 | 310 | 9.0 | 12.0 | 0.00 | 0.00 | 0.00 | 34 | 1016.7 |
| 20260506211024 | 57 | 18 | 12.0 | 14.0 | 0.00 | 0.00 | 0.00 | 33 | 1016.6 |
| 20260506210520 | 55 | 354 | 13.0 | 15.0 | 0.00 | 0.00 | 0.00 | 34 | 1016.6 |
| 20260506210017 | 54 | 314 | 8.0 | 12.0 | 0.00 | 0.00 | 0.00 | 35 | 1016.8 |
| 20260506205514 | 54 | 324 | 6.0 | 9.0 | 0.00 | 0.00 | 0.00 | 36 | 1016.8 |
| 20260506205009 | 54 | 319 | 9.0 | 12.0 | 0.00 | 0.00 | 0.00 | 35 | 1017.0 |
| 20260506204507 | 54 | 296 | 7.0 | 9.0 | 0.00 | 0.00 | 0.00 | 35 | 1017.0 |
| 20260506204004 | 54 | 314 | 7.0 | 9.0 | 0.00 | 0.00 | 0.00 | 36 | 1017.2 |
| 20260506203502 | 54 | 315 | 11.0 | 14.0 | 0.00 | 0.00 | 0.00 | 35 | 1017.2 |
| 20260506202959 | 54 | 359 | 10.0 | 14.0 | 0.00 | 0.00 | 0.00 | 35 | 1017.0 |
| 20260506202456 | 54 | 307 | 9.0 | 10.0 | 0.00 | 0.00 | 0.00 | 35 | 1017.2 |
| 20260506201952 | 55 | 353 | 16.0 | 19.0 | 0.00 | 0.00 | 0.00 | 34 | 1017.3 |
| 20260506201450 | 55 | 305 | 10.0 | 14.0 | 0.00 | 0.00 | 0.00 | 35 | 1017.2 |
| 20260506200946 | 53 | 314 | 6.0 | 7.0 | 0.00 | 0.00 | 0.00 | 36 | 1017.5 |
| 20260506200442 | 54 | 330 | 12.0 | 14.0 | 0.00 | 0.00 | 0.00 | 35 | 1017.3 |
| 20260506195939 | 54 | 305 | 7.0 | 9.0 | 0.00 | 0.00 | 0.00 | 36 | 1017.2 |
| 20260506195436 | 55 | 325 | 9.0 | 17.0 | 0.00 | 0.00 | 0.00 | 36 | 1017.5 |
| 20260506194932 | 55 | 327 | 8.0 | 10.0 | 0.00 | 0.00 | 0.00 | 36 | 1017.6 |
| 20260506194430 | 54 | 292 | 12.0 | 15.0 | 0.00 | 0.00 | 0.00 | 35 | 1017.7 |
| 20260506193926 | 53 | 323 | 10.0 | 12.0 | 0.00 | 0.00 | 0.00 | 35 | 1017.6 |
| 20260506193424 | 53 | 355 | 14.0 | 19.0 | 0.00 | 0.00 | 0.00 | 35 | 1017.6 |
| 20260506192920 | 54 | 319 | 13.0 | 17.0 | 0.00 | 0.00 | 0.00 | 34 | 1017.7 |
| 20260506192417 | 54 | 310 | 15.0 | 19.0 | 0.00 | 0.00 | 0.00 | 35 | 1017.7 |
| 20260506191914 | 54 | 300 | 14.0 | 17.0 | 0.00 | 0.00 | 0.00 | 34 | 1017.8 |
| 20260506191410 | 53 | 337 | 9.0 | 12.0 | 0.00 | 0.00 | 0.00 | 36 | 1017.9 |
| 20260506190908 | 53 | 312 | 14.0 | 19.0 | 0.00 | 0.00 | 0.00 | 37 | 1017.9 |
| 20260506190404 | 53 | 330 | 12.0 | 21.0 | 0.00 | 0.00 | 0.00 | 36 | 1018.0 |
| 20260506185900 | 53 | 318 | 6.0 | 10.0 | 0.00 | 0.00 | 0.00 | 37 | 1017.9 |
| 20260506185358 | 53 | 333 | 17.0 | 22.0 | 0.00 | 0.00 | 0.00 | 37 | 1018.0 |
| 20260506184855 | 54 | 337 | 9.0 | 10.0 | 0.00 | 0.00 | 0.00 | 36 | 1018.1 |
| 20260506184352 | 53 | 17 | 17.0 | 21.0 | 0.00 | 0.00 | 0.00 | 37 | 1018.1 |
| 20260506183849 | 53 | 316 | 7.0 | 10.0 | 0.00 | 0.00 | 0.00 | 38 | 1018.3 |
| 20260506183344 | 51 | 328 | 6.0 | 10.0 | 0.00 | 0.00 | 0.00 | 39 | 1018.3 |
| 20260506182842 | 52 | 352 | 12.0 | 19.0 | 0.00 | 0.00 | 0.00 | 37 | 1018.4 |
| 20260506182339 | 51 | 39 | 5.0 | 7.0 | 0.00 | 0.00 | 0.00 | 39 | 1018.3 |
| 20260506181836 | 51 | 358 | 10.0 | 12.0 | 0.00 | 0.00 | 0.00 | 39 | 1018.3 |
| 20260506181334 | 52 | 25 | 14.0 | 17.0 | 0.00 | 0.00 | 0.00 | 36 | 1018.6 |
| 20260506180831 | 51 | 337 | 7.0 | 9.0 | 0.00 | 0.00 | 0.00 | 38 | 1018.4 |
| 20260506180327 | 50 | 325 | 12.0 | 15.0 | 0.00 | 0.00 | 0.00 | 39 | 1018.3 |
| 20260506175823 | 51 | 344 | 9.0 | 14.0 | 0.00 | 0.00 | 0.00 | 39 | 1018.6 |
| 20260506175320 | 52 | 337 | 17.0 | 24.0 | 0.00 | 0.00 | 0.00 | 38 | 1018.5 |
| 20260506174818 | 51 | 327 | 7.0 | 9.0 | 0.00 | 0.00 | 0.00 | 39 | 1018.8 |
| 20260506174315 | 51 | 333 | 13.0 | 15.0 | 0.00 | 0.00 | 0.00 | 37 | 1018.8 |
| 20260506173812 | 50 | 310 | 11.0 | 15.0 | 0.00 | 0.00 | 0.00 | 39 | 1018.8 |
| 20260506173309 | 50 | 320 | 11.0 | 21.0 | 0.00 | 0.00 | 0.00 | 40 | 1018.6 |
| 20260506172806 | 50 | 298 | 12.0 | 15.0 | 0.00 | 0.00 | 0.00 | 39 | 1019.0 |
| 20260506172306 | 51 | 291 | 18.0 | 24.0 | 0.00 | 0.00 | 0.00 | 38 | 1019.0 |
| 20260506171800 | 50 | 323 | 14.0 | 19.0 | 0.00 | 0.00 | 0.00 | 40 | 1019.0 |
| 20260506171257 | 49 | 342 | 6.0 | 9.0 | 0.00 | 0.00 | 0.00 | 39 | 1019.2 |
| 20260506170755 | 49 | 297 | 16.0 | 21.0 | 0.00 | 0.00 | 0.00 | 39 | 1019.1 |
| 20260506170251 | 50 | 62 | 9.0 | 12.0 | 0.00 | 0.00 | 0.00 | 40 | 1019.1 |
| 20260506165749 | 50 | 15 | 12.0 | 15.0 | 0.00 | 0.00 | 0.00 | 40 | 1019.0 |
| 20260506165246 | 49 | 319 | 14.0 | 17.0 | 0.00 | 0.00 | 0.00 | 40 | 1019.0 |
| 20260506164743 | 50 | 357 | 8.0 | 9.0 | 0.00 | 0.00 | 0.00 | 41 | 1019.0 |
| 20260506164240 | 49 | 286 | 8.0 | 10.0 | 0.00 | 0.00 | 0.00 | 42 | 1019.3 |
| 20260506163737 | 48 | 348 | 13.0 | 15.0 | 0.00 | 0.00 | 0.00 | 43 | 1019.2 |
| 20260506163231 | 48 | 89 | 12.0 | 15.0 | 0.00 | 0.00 | 0.00 | 42 | 1019.2 |
| 20260506162728 | 47 | 306 | 8.0 | 12.0 | 0.00 | 0.00 | 0.00 | 45 | 1019.1 |
| 20260506162226 | 47 | 92 | 8.0 | 10.0 | 0.00 | 0.00 | 0.00 | 43 | 1019.2 |
| 20260506161723 | 47 | 327 | 7.0 | 9.0 | 0.00 | 0.00 | 0.00 | 45 | 1019.2 |
| 20260506161220 | 49 | 14 | 9.0 | 12.0 | 0.00 | 0.00 | 0.00 | 43 | 1019.4 |
| 20260506160718 | 48 | 301 | 12.0 | 15.0 | 0.00 | 0.00 | 0.00 | 43 | 1019.3 |
| 20260506160214 | 49 | 65 | 11.0 | 14.0 | 0.00 | 0.00 | 0.00 | 43 | 1019.3 |
| 20260506155713 | 48 | 327 | 8.0 | 10.0 | 0.00 | 0.00 | 0.00 | 45 | 1019.1 |
| 20260506155209 | 48 | 327 | 10.0 | 14.0 | 0.00 | 0.00 | 0.00 | 45 | 1019.2 |
| 20260506153311 | 48 | 6 | 8.0 | 10.0 | 0.00 | 0.00 | 0.00 | 45 | 1019.4 |
| 20260506152808 | 47 | 314 | 13.0 | 17.0 | 0.00 | 0.00 | 0.00 | 46 | 1019.4 |
| 20260506152306 | 47 | 350 | 8.0 | 10.0 | 0.00 | 0.00 | 0.00 | 45 | 1019.4 |
| 20260506151804 | 47 | 301 | 12.0 | 17.0 | 0.00 | 0.00 | 0.00 | 46 | 1019.4 |
| 20260506151300 | 47 | 321 | 7.0 | 12.0 | 0.00 | 0.00 | 0.00 | 45 | 1019.4 |
| 20260506150757 | 47 | 65 | 6.0 | 7.0 | 0.00 | 0.00 | 0.00 | 46 | 1019.5 |
| 20260506150303 | 47 | 343 | 13.0 | 17.0 | 0.00 | 0.00 | 0.00 | 46 | 1019.6 |
| 20260506145751 | 46 | 324 | 11.0 | 12.0 | 0.00 | 0.00 | 0.00 | 47 | 1019.3 |
| 20260506145247 | 46 | 301 | 8.0 | 12.0 | 0.00 | 0.00 | 0.00 | 47 | 1019.4 |
| 20260506144745 | 46 | 326 | 8.0 | 10.0 | 0.00 | 0.00 | 0.00 | 47 | 1019.4 |
| 20260506144242 | 47 | 44 | 12.0 | 15.0 | 0.00 | 0.00 | 0.00 | 46 | 1019.4 |
| 20260506143739 | 46 | 333 | 5.0 | 7.0 | 0.00 | 0.00 | 0.00 | 47 | 1019.6 |
| 20260506143237 | 46 | 66 | 4.0 | 5.0 | 0.00 | 0.00 | 0.00 | 49 | 1019.5 |
| 20260506142735 | 46 | 305 | 9.0 | 14.0 | 0.00 | 0.00 | 0.00 | 47 | 1019.6 |
| 20260506142233 | 45 | 99 | 4.0 | 5.0 | 0.00 | 0.00 | 0.00 | 48 | 1019.4 |
| 20260506141731 | 45 | 337 | 4.0 | 7.0 | 0.00 | 0.00 | 0.00 | 48 | 1019.5 |
| 20260506141229 | 44 | 329 | 4.0 | 5.0 | 0.00 | 0.00 | 0.00 | 49 | 1019.4 |
| 20260506140726 | 45 | 6 | 5.0 | 9.0 | 0.00 | 0.00 | 0.00 | 49 | 1019.5 |
| 20260506140223 | 45 | 60 | 6.0 | 7.0 | 0.00 | 0.00 | 0.00 | 50 | 1019.5 |
| 20260506135719 | 44 | 357 | 5.0 | 7.0 | 0.00 | 0.00 | 0.00 | 50 | 1019.5 |
| 20260506135216 | 44 | 101 | 6.0 | 9.0 | 0.00 | 0.00 | 0.00 | 50 | 1019.5 |
| 20260506134713 | 44 | 347 | 6.0 | 9.0 | 0.00 | 0.00 | 0.00 | 51 | 1019.6 |
| 20260506134209 | 43 | 342 | 4.0 | 7.0 | 0.00 | 0.00 | 0.00 | 52 | 1019.6 |
| 20260506133706 | 43 | 58 | 5.0 | 7.0 | 0.00 | 0.00 | 0.00 | 53 | 1019.5 |
| 20260506133203 | 43 | 91 | 2.0 | 3.0 | 0.00 | 0.00 | 0.00 | 54 | 1019.5 |
| 20260506132700 | 42 | 65 | 2.0 | 2.0 | 0.00 | 0.00 | 0.00 | 57 | 1019.3 |
| 20260506132157 | 42 | 340 | 4.0 | 5.0 | 0.00 | 0.00 | 0.00 | 58 | 1019.3 |
| 20260506131655 | 41 | 40 | 3.0 | 5.0 | 0.00 | 0.00 | 0.00 | 60 | 1019.3 |
| 20260506131150 | 41 | 12 | 2.0 | 3.0 | 0.00 | 0.00 | 0.00 | 61 | 1019.3 |
| 20260506130647 | 40 | 336 | 4.0 | 5.0 | 0.00 | 0.00 | 0.00 | 63 | 1019.2 |
| 20260506130145 | 40 | 67 | 2.0 | 3.0 | 0.00 | 0.00 | 0.00 | 65 | 1019.3 |
| 20260506125643 | 39 | 65 | 2.0 | 2.0 | 0.00 | 0.00 | 0.00 | 67 | 1019.2 |
| 20260506125140 | 38 | 331 | 3.0 | 3.0 | 0.00 | 0.00 | 0.00 | 68 | 1019.1 |
| 20260506124638 | 37 | 18 | 2.0 | 3.0 | 0.00 | 0.00 | 0.00 | 69 | 1019.2 |
| 20260506124136 | 37 | 82 | 3.0 | 3.0 | 0.00 | 0.00 | 0.00 | 70 | 1019.2 |
| 20260506123633 | 36 | 337 | 2.0 | 3.0 | 0.00 | 0.00 | 0.00 | 72 | 1019.1 |
| 20260506123132 | 35 | 44 | 2.0 | 3.0 | 0.00 | 0.00 | 0.00 | 74 | 1019.0 |
| 20260506122628 | 34 | 72 | 1.0 | 2.0 | 0.00 | 0.00 | 0.00 | 74 | 1019.0 |
| 20260506122126 | 34 | 103 | 1.0 | 2.0 | 0.00 | 0.00 | 0.00 | 74 | 1019.0 |
| 20260506121623 | 33 | 55 | 1.0 | 2.0 | 0.00 | 0.00 | 0.00 | 75 | 1018.8 |
| 20260506121120 | 33 | 74 | 2.0 | 2.0 | 0.00 | 0.00 | 0.00 | 75 | 1018.8 |
| 20260506120618 | 33 | 56 | 2.0 | 3.0 | 0.00 | 0.00 | 0.00 | 76 | 1018.8 |
| 20260506120115 | 32 | 62 | 2.0 | 3.0 | 0.00 | 0.00 | 0.00 | 76 | 1018.8 |
| 20260506115613 | 32 | 90 | 2.0 | 2.0 | 0.00 | 0.00 | 0.00 | 76 | 1018.7 |
| 20260506115111 | 32 | 90 | 0.0 | 0.0 | 0.00 | 0.00 | 0.00 | 77 | 1018.6 |
| 20260506114608 | 31 | 99 | 1.0 | 2.0 | 0.00 | 0.00 | 0.00 | 77 | 1018.4 |
| 20260506114106 | 31 | 67 | 1.0 | 2.0 | 0.00 | 0.00 | 0.00 | 77 | 1018.3 |
| 20260506113604 | 31 | 95 | 1.0 | 2.0 | 0.00 | 0.00 | 0.00 | 77 | 1018.0 |
| 20260506113101 | 31 | 13 | 2.0 | 3.0 | 0.00 | 0.00 | 0.00 | 77 | 1018.3 |
| 20260506112557 | 30 | 23 | 2.0 | 3.0 | 0.00 | 0.00 | 0.00 | 78 | 1018.2 |
| 20260506112055 | 30 | 25 | 3.0 | 3.0 | 0.00 | 0.00 | 0.00 | 78 | 1018.2 |
| 20260506111553 | 31 | 85 | 2.0 | 3.0 | 0.00 | 0.00 | 0.00 | 77 | 1017.9 |
| 20260506111049 | 31 | 101 | 1.0 | 2.0 | 0.00 | 0.00 | 0.00 | 77 | 1018.1 |
| 20260506110547 | 32 | 97 | 2.0 | 2.0 | 0.00 | 0.00 | 0.00 | 76 | 1017.8 |
| 20260506110044 | 31 | 88 | 3.0 | 3.0 | 0.00 | 0.00 | 0.00 | 77 | 1017.8 |
| 20260506105540 | 30 | 21 | 3.0 | 3.0 | 0.00 | 0.00 | 0.00 | 77 | 1017.8 |
| 20260506105038 | 30 | 87 | 2.0 | 2.0 | 0.00 | 0.00 | 0.00 | 76 | 1017.8 |
| 20260506104536 | 31 | 345 | 3.0 | 3.0 | 0.00 | 0.00 | 0.00 | 75 | 1017.7 |
| 20260506104033 | 31 | 52 | 3.0 | 3.0 | 0.00 | 0.00 | 0.00 | 76 | 1017.7 |
| 20260506103530 | 31 | 340 | 2.0 | 3.0 | 0.00 | 0.00 | 0.00 | 74 | 1017.7 |
| 20260506103027 | 31 | 74 | 1.0 | 2.0 | 0.00 | 0.00 | 0.00 | 75 | 1017.6 |
| 20260506102526 | 32 | 76 | 2.0 | 3.0 | 0.00 | 0.00 | 0.00 | 74 | 1017.8 |
| 20260506102022 | 32 | 106 | 0.0 | 2.0 | 0.00 | 0.00 | 0.00 | 73 | 1017.7 |
| 20260506101519 | 31 | 72 | 2.0 | 3.0 | 0.00 | 0.00 | 0.00 | 75 | 1017.8 |
| 20260506101016 | 31 | 106 | 0.0 | 0.0 | 0.00 | 0.00 | 0.00 | 75 | 1017.7 |
| 20260506100514 | 32 | 108 | 0.0 | 0.0 | 0.00 | 0.00 | 0.00 | 73 | 1017.6 |
| 20260506100012 | 32 | 76 | 0.0 | 0.0 | 0.00 | 0.00 | 0.00 | 73 | 1017.5 |
| 20260506095511 | 32 | 94 | 1.0 | 2.0 | 0.00 | 0.00 | 0.00 | 73 | 1017.8 |
| 20260506095006 | 32 | 101 | 0.0 | 0.0 | 0.00 | 0.00 | 0.00 | 73 | 1017.7 |
| 20260506094505 | 32 | 80 | 1.0 | 2.0 | 0.00 | 0.00 | 0.00 | 74 | 1017.6 |
| 20260506094002 | 32 | 110 | 0.0 | 0.0 | 0.00 | 0.00 | 0.00 | 74 | 1017.6 |
| 20260506093500 | 32 | 74 | 1.0 | 2.0 | 0.00 | 0.00 | 0.00 | 72 | 1017.7 |
| 20260506092957 | 33 | 101 | 2.0 | 2.0 | 0.00 | 0.00 | 0.00 | 71 | 1017.5 |
| 20260506092455 | 33 | 313 | 4.0 | 5.0 | 0.00 | 0.00 | 0.00 | 71 | 1017.5 |
| 20260506091951 | 33 | 318 | 4.0 | 5.0 | 0.00 | 0.00 | 0.00 | 71 | 1017.3 |
| 20260506091450 | 33 | 9 | 3.0 | 5.0 | 0.00 | 0.00 | 0.00 | 72 | 1017.3 |
| 20260506090947 | 32 | 76 | 2.0 | 2.0 | 0.00 | 0.00 | 0.00 | 72 | 1017.5 |
| 20260506090445 | 33 | 104 | 1.0 | 2.0 | 0.00 | 0.00 | 0.00 | 71 | 1017.2 |
| 20260506085941 | 33 | 345 | 4.0 | 5.0 | 0.00 | 0.00 | 0.00 | 71 | 1017.2 |
| 20260506085438 | 33 | 85 | 3.0 | 3.0 | 0.00 | 0.00 | 0.00 | 70 | 1017.1 |
| 20260506084934 | 33 | 63 | 3.0 | 3.0 | 0.00 | 0.00 | 0.00 | 69 | 1017.5 |
| 20260506084431 | 33 | 44 | 3.0 | 3.0 | 0.00 | 0.00 | 0.00 | 70 | 1017.3 |
| 20260506083927 | 33 | 96 | 1.0 | 2.0 | 0.00 | 0.00 | 0.00 | 70 | 1017.1 |
| 20260506083424 | 33 | 89 | 3.0 | 3.0 | 0.00 | 0.00 | 0.00 | 70 | 1016.9 |
| 20260506082922 | 33 | 81 | 2.0 | 3.0 | 0.00 | 0.00 | 0.00 | 69 | 1017.1 |
| 20260506082419 | 34 | 38 | 2.0 | 3.0 | 0.00 | 0.00 | 0.00 | 68 | 1017.0 |
| 20260506081914 | 34 | 64 | 3.0 | 3.0 | 0.00 | 0.00 | 0.00 | 68 | 1017.0 |
| 20260506081413 | 34 | 63 | 2.0 | 3.0 | 0.00 | 0.00 | 0.00 | 67 | 1017.0 |
| 20260506080910 | 34 | 67 | 2.0 | 2.0 | 0.00 | 0.00 | 0.00 | 68 | 1016.9 |
| 20260506080406 | 34 | 62 | 2.0 | 2.0 | 0.00 | 0.00 | 0.00 | 67 | 1016.7 |
| 20260506073350 | 33 | 105 | 0.0 | 0.0 | 0.00 | 0.00 | 0.00 | 67 | 1016.6 |
| 20260506072847 | 34 | 109 | 0.0 | 0.0 | 0.00 | 0.00 | 0.00 | 66 | 1016.5 |
| 20260506072345 | 34 | 96 | 1.0 | 2.0 | 0.00 | 0.00 | 0.00 | 66 | 1016.4 |
| 20260506071842 | 33 | 108 | 0.0 | 0.0 | 0.00 | 0.00 | 0.00 | 68 | 1016.5 |
| 20260506071341 | 34 | 105 | 0.0 | 0.0 | 0.00 | 0.00 | 0.00 | 67 | 1016.5 |
| 20260506070837 | 36 | 97 | 1.0 | 2.0 | 0.00 | 0.00 | 0.00 | 64 | 1017.0 |
| 20260506070334 | 36 | 97 | 0.0 | 2.0 | 0.00 | 0.00 | 0.00 | 65 | 1017.0 |
| 20260506062311 | 36 | 344 | 3.0 | 3.0 | 0.00 | 0.00 | 0.00 | 64 | 1016.8 |
| 20260506061807 | 36 | 343 | 2.0 | 3.0 | 0.00 | 0.00 | 0.00 | 63 | 1016.8 |
| 20260506061304 | 36 | 336 | 3.0 | 3.0 | 0.00 | 0.00 | 0.00 | 62 | 1016.9 |
| 20260506060802 | 35 | 34 | 2.0 | 3.0 | 0.00 | 0.00 | 0.00 | 63 | 1016.8 |
| 20260506060300 | 35 | 84 | 2.0 | 3.0 | 0.00 | 0.00 | 0.00 | 64 | 1016.7 |
| 20260506051231 | 35 | 109 | 1.0 | 2.0 | 0.00 | 0.00 | 0.00 | 61 | 1016.2 |
| 20260506050730 | 36 | 29 | 2.0 | 3.0 | 0.00 | 0.00 | 0.00 | 60 | 1016.2 |
| 20260506050227 | 36 | 68 | 2.0 | 3.0 | 0.00 | 0.00 | 0.00 | 59 | 1016.3 |
| 20260506044717 | 37 | 64 | 3.0 | 3.0 | 0.00 | 0.00 | 0.00 | 59 | 1016.4 |
| 20260506044215 | 37 | 99 | 2.0 | 2.0 | 0.00 | 0.00 | 0.00 | 59 | 1016.4 |
| 20260506043712 | 37 | 307 | 3.0 | 3.0 | 0.00 | 0.00 | 0.00 | 59 | 1016.5 |
| 20260506043210 | 37 | 15 | 2.0 | 2.0 | 0.00 | 0.00 | 0.00 | 58 | 1016.5 |
| 20260506042708 | 37 | 349 | 4.0 | 5.0 | 0.00 | 0.00 | 0.00 | 58 | 1016.4 |
| 20260506042206 | 38 | 331 | 4.0 | 5.0 | 0.00 | 0.00 | 0.00 | 57 | 1016.5 |
| 20260506041704 | 38 | 48 | 3.0 | 3.0 | 0.00 | 0.00 | 0.00 | 56 | 1016.4 |
| 20260506041201 | 39 | 343 | 3.0 | 5.0 | 0.00 | 0.00 | 0.00 | 56 | 1016.4 |
| 20260506040658 | 39 | 321 | 2.0 | 3.0 | 0.00 | 0.00 | 0.00 | 56 | 1016.6 |
| 20260506040155 | 39 | 339 | 2.0 | 3.0 | 0.00 | 0.00 | 0.00 | 56 | 1016.6 |
| 20260506035652 | 39 | 67 | 3.0 | 3.0 | 0.00 | 0.00 | 0.00 | 55 | 1016.6 |
| 20260506035149 | 39 | 317 | 3.0 | 5.0 | 0.00 | 0.00 | 0.00 | 55 | 1016.6 |
| 20260506034645 | 39 | 47 | 2.0 | 3.0 | 0.00 | 0.00 | 0.00 | 55 | 1016.7 |
| 20260506034143 | 39 | 20 | 2.0 | 3.0 | 0.00 | 0.00 | 0.00 | 55 | 1016.5 |
| 20260506033640 | 39 | 324 | 3.0 | 3.0 | 0.00 | 0.00 | 0.00 | 54 | 1016.5 |
| 20260506033137 | 39 | 57 | 2.0 | 3.0 | 0.00 | 0.00 | 0.00 | 54 | 1016.4 |
| 20260506032634 | 39 | 86 | 3.0 | 3.0 | 0.00 | 0.00 | 0.00 | 54 | 1016.3 |
| 20260506032131 | 39 | 109 | 1.0 | 2.0 | 0.00 | 0.00 | 0.00 | 54 | 1016.3 |
| 20260506031628 | 39 | 112 | 0.0 | 2.0 | 0.00 | 0.00 | 0.00 | 54 | 1016.4 |
| 20260506031125 | 40 | 17 | 3.0 | 3.0 | 0.00 | 0.00 | 0.00 | 52 | 1016.2 |
| 20260506030623 | 41 | 69 | 2.0 | 3.0 | 0.00 | 0.00 | 0.00 | 52 | 1016.3 |
| 20260506030120 | 41 | 87 | 0.0 | 0.0 | 0.00 | 0.00 | 0.00 | 51 | 1016.4 |
| 20260506025617 | 42 | 52 | 2.0 | 2.0 | 0.00 | 0.00 | 0.00 | 50 | 1016.3 |
| 20260506025113 | 42 | 290 | 2.0 | 3.0 | 0.00 | 0.00 | 0.00 | 50 | 1016.2 |
| 20260506024611 | 42 | 90 | 2.0 | 3.0 | 0.00 | 0.00 | 0.00 | 50 | 1016.1 |
| 20260506024106 | 42 | 343 | 2.0 | 3.0 | 0.00 | 0.00 | 0.00 | 50 | 1016.1 |
| 20260506023602 | 42 | 46 | 4.0 | 5.0 | 0.00 | 0.00 | 0.00 | 48 | 1015.9 |
| 20260506023100 | 43 | 95 | 2.0 | 2.0 | 0.00 | 0.00 | 0.00 | 48 | 1015.8 |
| 20260506022558 | 43 | 80 | 2.0 | 3.0 | 0.00 | 0.00 | 0.00 | 48 | 1015.8 |
| 20260506022055 | 44 | 57 | 4.0 | 5.0 | 0.00 | 0.00 | 0.00 | 47 | 1015.7 |
| 20260506021553 | 43 | 14 | 2.0 | 3.0 | 0.00 | 0.00 | 0.00 | 47 | 1015.7 |
| 20260506021050 | 44 | 44 | 3.0 | 3.0 | 0.00 | 0.00 | 0.00 | 46 | 1015.5 |
| 20260506020547 | 44 | 1 | 5.0 | 7.0 | 0.00 | 0.00 | 0.00 | 46 | 1015.5 |
| 20260506020044 | 44 | 50 | 4.0 | 5.0 | 0.00 | 0.00 | 0.00 | 45 | 1015.2 |
| 20260506015542 | 45 | 296 | 2.0 | 3.0 | 0.00 | 0.00 | 0.00 | 45 | 1015.2 |
| 20260506015039 | 45 | 78 | 9.0 | 12.0 | 0.00 | 0.00 | 0.00 | 44 | 1015.2 |
| 20260506014536 | 45 | 52 | 4.0 | 5.0 | 0.00 | 0.00 | 0.00 | 44 | 1015.0 |
| 20260506014032 | 46 | 73 | 4.0 | 5.0 | 0.00 | 0.00 | 0.00 | 43 | 1015.1 |
| 20260506013531 | 45 | 75 | 6.0 | 9.0 | 0.00 | 0.00 | 0.00 | 43 | 1015.1 |
| 20260506013026 | 46 | 26 | 4.0 | 5.0 | 0.00 | 0.00 | 0.00 | 43 | 1015.1 |
| 20260506012522 | 46 | 10 | 2.0 | 3.0 | 0.00 | 0.00 | 0.00 | 43 | 1014.8 |
| 20260506012019 | 46 | 34 | 5.0 | 5.0 | 0.00 | 0.00 | 0.00 | 42 | 1014.8 |
| 20260506011517 | 47 | 54 | 6.0 | 9.0 | 0.00 | 0.00 | 0.00 | 41 | 1014.8 |
| 20260506011013 | 47 | 264 | 10.0 | 15.0 | 0.00 | 0.00 | 0.00 | 40 | 1015.0 |
| 20260506010513 | 48 | 99 | 7.0 | 10.0 | 0.00 | 0.00 | 0.00 | 41 | 1014.7 |
| 20260506010009 | 48 | 99 | 3.0 | 3.0 | 0.00 | 0.00 | 0.00 | 41 | 1014.8 |
| 20260506005506 | 48 | 319 | 9.0 | 12.0 | 0.00 | 0.00 | 0.00 | 40 | 1014.5 |
| 20260506005002 | 48 | 314 | 9.0 | 15.0 | 0.00 | 0.00 | 0.00 | 40 | 1014.6 |
| 20260506004459 | 48 | 14 | 5.0 | 7.0 | 0.00 | 0.00 | 0.00 | 40 | 1014.4 |
| 20260506003955 | 48 | 317 | 9.0 | 12.0 | 0.00 | 0.00 | 0.00 | 38 | 1014.4 |
| 20260506003452 | 48 | 320 | 15.0 | 19.0 | 0.00 | 0.00 | 0.00 | 38 | 1014.2 |
| 20260506002948 | 50 | 341 | 14.0 | 15.0 | 0.00 | 0.00 | 0.00 | 38 | 1014.3 |
| 20260506002444 | 48 | 331 | 5.0 | 7.0 | 0.00 | 0.00 | 0.00 | 40 | 1014.2 |
| 20260506001940 | 49 | 307 | 7.0 | 9.0 | 0.00 | 0.00 | 0.00 | 40 | 1014.2 |
| 20260506001437 | 49 | 312 | 7.0 | 9.0 | 0.00 | 0.00 | 0.00 | 39 | 1014.2 |
| 20260506000934 | 50 | 288 | 10.0 | 15.0 | 0.00 | 0.00 | 0.00 | 38 | 1014.0 |
| 20260506000432 | 49 | 331 | 5.0 | 9.0 | 0.00 | 0.00 | 0.00 | 38 | 1014.1 |
| 20260505235928 | 49 | 60 | 4.0 | 7.0 | 0.00 | 0.00 | 0.00 | 38 | 1014.0 |
| 20260505235427 | 49 | 315 | 11.0 | 15.0 | 0.00 | 0.00 | 0.00 | 38 | 1014.2 |
| 20260505234923 | 50 | 321 | 10.0 | 12.0 | 0.00 | 0.00 | 0.00 | 37 | 1014.1 |
| 20260505234421 | 50 | 279 | 12.0 | 15.0 | 0.00 | 0.00 | 0.00 | 37 | 1014.0 |
| 20260505233917 | 50 | 23 | 9.0 | 12.0 | 0.00 | 0.00 | 0.00 | 37 | 1014.0 |
| 20260505233415 | 50 | 342 | 5.0 | 7.0 | 0.00 | 0.00 | 0.00 | 37 | 1014.1 |
| 20260505232913 | 50 | 310 | 14.0 | 19.0 | 0.00 | 0.00 | 0.00 | 37 | 1014.1 |
| 20260505232411 | 50 | 7 | 9.0 | 14.0 | 0.00 | 0.00 | 0.00 | 36 | 1013.9 |
| 20260505231907 | 50 | 169 | 12.0 | 15.0 | 0.00 | 0.00 | 0.00 | 36 | 1014.0 |
| 20260505231404 | 50 | 14 | 6.0 | 7.0 | 0.00 | 0.00 | 0.00 | 37 | 1014.2 |
| 20260505230902 | 49 | 343 | 13.0 | 15.0 | 0.00 | 0.00 | 0.00 | 37 | 1013.8 |
| 20260505230359 | 50 | 357 | 10.0 | 15.0 | 0.00 | 0.00 | 0.00 | 37 | 1013.8 |
| 20260505225856 | 50 | 64 | 5.0 | 5.0 | 0.00 | 0.00 | 0.00 | 37 | 1014.0 |
| 20260505225353 | 50 | 175 | 8.0 | 12.0 | 0.00 | 0.00 | 0.00 | 36 | 1013.9 |
| 20260505224848 | 50 | 64 | 5.0 | 10.0 | 0.00 | 0.00 | 0.00 | 36 | 1014.0 |
| 20260505224346 | 50 | 7 | 8.0 | 10.0 | 0.00 | 0.00 | 0.00 | 36 | 1014.1 |
| 20260505223843 | 50 | 2 | 9.0 | 12.0 | 0.00 | 0.00 | 0.00 | 37 | 1013.9 |
| 20260505223340 | 50 | 354 | 17.0 | 22.0 | 0.00 | 0.00 | 0.00 | 36 | 1013.9 |
| 20260505222836 | 50 | 305 | 14.0 | 15.0 | 0.00 | 0.00 | 0.00 | 37 | 1014.0 |
| 20260505222332 | 50 | 339 | 15.0 | 21.0 | 0.00 | 0.00 | 0.00 | 36 | 1013.8 |